sensor_id;sensor_type;location;lat;lon;timestamp;temperature;humidity
6654;DHT22;3363;50.942;7.034;2022-08-19T00:01:14;22.90;72.60
6654;DHT22;3363;50.942;7.034;2022-08-19T00:03:41;22.90;72.30
6654;DHT22;3363;50.942;7.034;2022-08-19T00:06:08;22.90;72.50
6654;DHT22;3363;50.942;7.034;2022-08-19T00:08:35;22.80;72.40
6654;DHT22;3363;50.942;7.034;2022-08-19T00:11:01;22.90;72.80
6654;DHT22;3363;50.942;7.034;2022-08-19T00:13:32;22.80;72.80
6654;DHT22;3363;50.942;7.034;2022-08-19T00:15:58;22.80;72.80
6654;DHT22;3363;50.942;7.034;2022-08-19T00:18:25;22.80;73.00
6654;DHT22;3363;50.942;7.034;2022-08-19T00:20:52;22.80;73.10
6654;DHT22;3363;50.942;7.034;2022-08-19T00:23:19;22.80;73.00
6654;DHT22;3363;50.942;7.034;2022-08-19T00:25:48;22.80;73.40
6654;DHT22;3363;50.942;7.034;2022-08-19T00:28:15;22.80;73.40
6654;DHT22;3363;50.942;7.034;2022-08-19T00:30:43;22.80;73.40
6654;DHT22;3363;50.942;7.034;2022-08-19T00:33:09;22.70;73.50
6654;DHT22;3363;50.942;7.034;2022-08-19T00:35:36;22.70;73.30
6654;DHT22;3363;50.942;7.034;2022-08-19T00:38:03;22.70;73.40
6654;DHT22;3363;50.942;7.034;2022-08-19T00:40:31;22.70;73.90
6654;DHT22;3363;50.942;7.034;2022-08-19T00:42:58;22.70;73.60
6654;DHT22;3363;50.942;7.034;2022-08-19T00:45:26;22.70;74.00
6654;DHT22;3363;50.942;7.034;2022-08-19T00:47:54;22.70;74.30
6654;DHT22;3363;50.942;7.034;2022-08-19T00:50:21;22.70;74.10
6654;DHT22;3363;50.942;7.034;2022-08-19T00:52:49;22.60;74.10
6654;DHT22;3363;50.942;7.034;2022-08-19T00:55:18;22.60;74.40
6654;DHT22;3363;50.942;7.034;2022-08-19T00:57:45;22.60;74.70
6654;DHT22;3363;50.942;7.034;2022-08-19T01:00:14;22.60;74.60
6654;DHT22;3363;50.942;7.034;2022-08-19T01:02:41;22.60;74.70
6654;DHT22;3363;50.942;7.034;2022-08-19T01:05:11;22.60;74.70
6654;DHT22;3363;50.942;7.034;2022-08-19T01:07:38;22.60;74.70
6654;DHT22;3363;50.942;7.034;2022-08-19T01:10:07;22.50;74.70
6654;DHT22;3363;50.942;7.034;2022-08-19T01:12:35;22.50;74.90
6654;DHT22;3363;50.942;7.034;2022-08-19T01:15:02;22.50;74.90
6654;DHT22;3363;50.942;7.034;2022-08-19T01:17:29;22.50;74.90
6654;DHT22;3363;50.942;7.034;2022-08-19T01:19:56;22.50;75.30
6654;DHT22;3363;50.942;7.034;2022-08-19T01:22:28;22.50;75.10
6654;DHT22;3363;50.942;7.034;2022-08-19T01:24:56;22.50;75.20
6654;DHT22;3363;50.942;7.034;2022-08-19T01:27:23;22.50;75.80
6654;DHT22;3363;50.942;7.034;2022-08-19T01:29:52;22.40;75.90
6654;DHT22;3363;50.942;7.034;2022-08-19T01:32:19;22.40;76.10
6654;DHT22;3363;50.942;7.034;2022-08-19T01:34:46;22.40;76.10
6654;DHT22;3363;50.942;7.034;2022-08-19T01:37:13;22.40;76.10
6654;DHT22;3363;50.942;7.034;2022-08-19T01:39:42;22.40;76.20
6654;DHT22;3363;50.942;7.034;2022-08-19T01:42:09;22.40;76.10
6654;DHT22;3363;50.942;7.034;2022-08-19T01:44:39;22.30;76.40
6654;DHT22;3363;50.942;7.034;2022-08-19T01:47:06;22.30;76.40
6654;DHT22;3363;50.942;7.034;2022-08-19T01:49:35;22.30;76.60
6654;DHT22;3363;50.942;7.034;2022-08-19T01:52:02;22.30;76.10
6654;DHT22;3363;50.942;7.034;2022-08-19T01:54:29;22.30;76.50
6654;DHT22;3363;50.942;7.034;2022-08-19T01:56:57;22.30;76.40
6654;DHT22;3363;50.942;7.034;2022-08-19T01:59:24;22.20;76.70
6654;DHT22;3363;50.942;7.034;2022-08-19T02:01:51;22.30;77.30
6654;DHT22;3363;50.942;7.034;2022-08-19T02:04:18;22.20;77.00
6654;DHT22;3363;50.942;7.034;2022-08-19T02:06:46;22.20;77.00
6654;DHT22;3363;50.942;7.034;2022-08-19T02:09:13;22.20;77.00
6654;DHT22;3363;50.942;7.034;2022-08-19T02:11:40;22.20;77.00
6654;DHT22;3363;50.942;7.034;2022-08-19T02:14:09;22.20;77.00
6654;DHT22;3363;50.942;7.034;2022-08-19T02:16:36;22.20;77.00
6654;DHT22;3363;50.942;7.034;2022-08-19T02:19:05;22.20;77.00
6654;DHT22;3363;50.942;7.034;2022-08-19T02:21:35;22.20;77.20
6654;DHT22;3363;50.942;7.034;2022-08-19T02:24:03;22.20;77.10
6654;DHT22;3363;50.942;7.034;2022-08-19T02:26:29;22.10;77.40
6654;DHT22;3363;50.942;7.034;2022-08-19T02:28:56;22.10;77.30
6654;DHT22;3363;50.942;7.034;2022-08-19T02:31:24;22.10;77.50
6654;DHT22;3363;50.942;7.034;2022-08-19T02:33:53;22.10;77.60
6654;DHT22;3363;50.942;7.034;2022-08-19T02:36:20;22.10;77.60
6654;DHT22;3363;50.942;7.034;2022-08-19T02:38:47;22.10;77.60
6654;DHT22;3363;50.942;7.034;2022-08-19T02:41:14;22.10;77.80
6654;DHT22;3363;50.942;7.034;2022-08-19T02:43:41;22.00;77.90
6654;DHT22;3363;50.942;7.034;2022-08-19T02:46:12;22.00;78.20
6654;DHT22;3363;50.942;7.034;2022-08-19T02:48:41;22.00;77.80
6654;DHT22;3363;50.942;7.034;2022-08-19T02:51:07;22.00;78.10
6654;DHT22;3363;50.942;7.034;2022-08-19T02:53:34;22.00;77.90
6654;DHT22;3363;50.942;7.034;2022-08-19T02:56:01;22.00;77.70
6654;DHT22;3363;50.942;7.034;2022-08-19T02:58:28;22.00;77.60
6654;DHT22;3363;50.942;7.034;2022-08-19T03:00:55;22.00;77.90
6654;DHT22;3363;50.942;7.034;2022-08-19T03:03:24;22.00;77.90
6654;DHT22;3363;50.942;7.034;2022-08-19T03:06:01;21.90;78.50
6654;DHT22;3363;50.942;7.034;2022-08-19T03:08:28;21.90;78.10
6654;DHT22;3363;50.942;7.034;2022-08-19T03:10:55;21.90;78.20
6654;DHT22;3363;50.942;7.034;2022-08-19T03:13:22;21.90;78.50
6654;DHT22;3363;50.942;7.034;2022-08-19T03:15:49;21.90;78.40
6654;DHT22;3363;50.942;7.034;2022-08-19T03:18:16;21.90;79.00
6654;DHT22;3363;50.942;7.034;2022-08-19T03:20:44;21.90;78.90
6654;DHT22;3363;50.942;7.034;2022-08-19T03:23:12;21.80;78.80
6654;DHT22;3363;50.942;7.034;2022-08-19T03:25:40;21.80;78.30
6654;DHT22;3363;50.942;7.034;2022-08-19T03:28:09;21.80;78.80
6654;DHT22;3363;50.942;7.034;2022-08-19T03:30:36;21.80;78.70
6654;DHT22;3363;50.942;7.034;2022-08-19T03:33:02;21.80;78.60
6654;DHT22;3363;50.942;7.034;2022-08-19T03:35:29;21.80;79.00
6654;DHT22;3363;50.942;7.034;2022-08-19T03:37:56;21.80;78.80
6654;DHT22;3363;50.942;7.034;2022-08-19T03:40:25;21.80;78.80
6654;DHT22;3363;50.942;7.034;2022-08-19T03:42:52;21.70;78.60
6654;DHT22;3363;50.942;7.034;2022-08-19T03:45:19;21.70;78.70
6654;DHT22;3363;50.942;7.034;2022-08-19T03:47:45;21.70;79.00
6654;DHT22;3363;50.942;7.034;2022-08-19T03:50:12;21.70;79.00
6654;DHT22;3363;50.942;7.034;2022-08-19T03:52:39;21.70;79.20
6654;DHT22;3363;50.942;7.034;2022-08-19T03:55:06;21.70;79.00
6654;DHT22;3363;50.942;7.034;2022-08-19T03:57:34;21.70;79.60
6654;DHT22;3363;50.942;7.034;2022-08-19T04:00:01;21.70;79.30
6654;DHT22;3363;50.942;7.034;2022-08-19T04:02:30;21.70;80.20
6654;DHT22;3363;50.942;7.034;2022-08-19T04:04:57;21.60;79.10
6654;DHT22;3363;50.942;7.034;2022-08-19T04:07:24;21.60;79.70
6654;DHT22;3363;50.942;7.034;2022-08-19T04:09:51;21.60;79.10
6654;DHT22;3363;50.942;7.034;2022-08-19T04:12:18;21.60;79.20
6654;DHT22;3363;50.942;7.034;2022-08-19T04:14:48;21.60;79.60
6654;DHT22;3363;50.942;7.034;2022-08-19T04:17:14;21.60;79.60
6654;DHT22;3363;50.942;7.034;2022-08-19T04:19:41;21.60;80.30
6654;DHT22;3363;50.942;7.034;2022-08-19T04:22:10;21.60;79.80
6654;DHT22;3363;50.942;7.034;2022-08-19T04:24:37;21.50;79.70
6654;DHT22;3363;50.942;7.034;2022-08-19T04:27:04;21.50;80.00
6654;DHT22;3363;50.942;7.034;2022-08-19T04:29:32;21.50;80.10
6654;DHT22;3363;50.942;7.034;2022-08-19T04:32:00;21.50;80.30
6654;DHT22;3363;50.942;7.034;2022-08-19T04:34:27;21.50;80.20
6654;DHT22;3363;50.942;7.034;2022-08-19T04:36:55;21.50;80.30
6654;DHT22;3363;50.942;7.034;2022-08-19T04:39:23;21.50;80.00
6654;DHT22;3363;50.942;7.034;2022-08-19T04:42:10;21.50;80.10
6654;DHT22;3363;50.942;7.034;2022-08-19T04:44:59;21.50;80.60
6654;DHT22;3363;50.942;7.034;2022-08-19T04:47:30;21.50;80.50
6654;DHT22;3363;50.942;7.034;2022-08-19T04:49:58;21.50;81.20
6654;DHT22;3363;50.942;7.034;2022-08-19T04:52:25;21.50;80.70
6654;DHT22;3363;50.942;7.034;2022-08-19T04:54:51;21.40;80.80
6654;DHT22;3363;50.942;7.034;2022-08-19T04:57:20;21.40;80.60
6654;DHT22;3363;50.942;7.034;2022-08-19T04:59:49;21.40;81.20
6654;DHT22;3363;50.942;7.034;2022-08-19T05:02:15;21.40;81.00
6654;DHT22;3363;50.942;7.034;2022-08-19T05:04:44;21.40;81.50
6654;DHT22;3363;50.942;7.034;2022-08-19T05:07:10;21.40;81.20
6654;DHT22;3363;50.942;7.034;2022-08-19T05:09:37;21.40;81.70
6654;DHT22;3363;50.942;7.034;2022-08-19T05:12:04;21.40;81.70
6654;DHT22;3363;50.942;7.034;2022-08-19T05:14:31;21.40;81.70
6654;DHT22;3363;50.942;7.034;2022-08-19T05:16:58;21.40;81.50
6654;DHT22;3363;50.942;7.034;2022-08-19T05:19:26;21.40;81.90
6654;DHT22;3363;50.942;7.034;2022-08-19T05:22:12;21.40;82.30
6654;DHT22;3363;50.942;7.034;2022-08-19T05:24:56;21.40;82.00
6654;DHT22;3363;50.942;7.034;2022-08-19T05:27:23;21.40;83.60
6654;DHT22;3363;50.942;7.034;2022-08-19T05:29:50;21.40;83.50
6654;DHT22;3363;50.942;7.034;2022-08-19T05:32:16;21.30;83.00
6654;DHT22;3363;50.942;7.034;2022-08-19T05:34:43;21.10;89.60
6654;DHT22;3363;50.942;7.034;2022-08-19T05:37:11;20.90;91.60
6654;DHT22;3363;50.942;7.034;2022-08-19T05:39:38;20.60;95.10
6654;DHT22;3363;50.942;7.034;2022-08-19T05:42:07;20.30;98.00
6654;DHT22;3363;50.942;7.034;2022-08-19T05:44:34;20.10;99.90
6654;DHT22;3363;50.942;7.034;2022-08-19T05:47:02;20.00;99.90
6654;DHT22;3363;50.942;7.034;2022-08-19T05:49:30;19.90;99.90
6654;DHT22;3363;50.942;7.034;2022-08-19T05:51:57;20.10;99.90
6654;DHT22;3363;50.942;7.034;2022-08-19T05:54:26;20.30;99.90
6654;DHT22;3363;50.942;7.034;2022-08-19T05:56:53;20.50;99.90
6654;DHT22;3363;50.942;7.034;2022-08-19T05:59:20;20.60;99.50
6654;DHT22;3363;50.942;7.034;2022-08-19T06:01:47;20.50;99.90
6654;DHT22;3363;50.942;7.034;2022-08-19T06:04:16;20.60;99.90
6654;DHT22;3363;50.942;7.034;2022-08-19T06:06:44;20.60;99.90
6654;DHT22;3363;50.942;7.034;2022-08-19T06:09:11;20.60;99.90
6654;DHT22;3363;50.942;7.034;2022-08-19T06:11:40;20.60;99.90
6654;DHT22;3363;50.942;7.034;2022-08-19T06:14:12;20.50;99.90
6654;DHT22;3363;50.942;7.034;2022-08-19T06:16:40;20.60;99.90
6654;DHT22;3363;50.942;7.034;2022-08-19T06:19:08;20.70;99.90
6654;DHT22;3363;50.942;7.034;2022-08-19T06:21:36;20.70;99.90
6654;DHT22;3363;50.942;7.034;2022-08-19T06:24:03;20.80;99.90
6654;DHT22;3363;50.942;7.034;2022-08-19T06:26:32;20.90;99.90
6654;DHT22;3363;50.942;7.034;2022-08-19T06:29:01;20.80;99.90
6654;DHT22;3363;50.942;7.034;2022-08-19T06:31:28;20.80;99.90
6654;DHT22;3363;50.942;7.034;2022-08-19T06:33:56;20.80;99.90
6654;DHT22;3363;50.942;7.034;2022-08-19T06:36:23;20.70;99.90
6654;DHT22;3363;50.942;7.034;2022-08-19T06:38:57;20.90;99.90
6654;DHT22;3363;50.942;7.034;2022-08-19T06:41:24;21.00;99.90
6654;DHT22;3363;50.942;7.034;2022-08-19T06:43:51;21.00;99.90
6654;DHT22;3363;50.942;7.034;2022-08-19T06:46:19;21.00;99.90
6654;DHT22;3363;50.942;7.034;2022-08-19T06:48:46;21.00;99.90
6654;DHT22;3363;50.942;7.034;2022-08-19T06:51:13;21.00;99.90
6654;DHT22;3363;50.942;7.034;2022-08-19T06:53:43;21.00;99.90
6654;DHT22;3363;50.942;7.034;2022-08-19T06:56:11;21.10;99.90
6654;DHT22;3363;50.942;7.034;2022-08-19T06:58:38;21.20;99.90
6654;DHT22;3363;50.942;7.034;2022-08-19T07:01:05;21.20;99.90
6654;DHT22;3363;50.942;7.034;2022-08-19T07:03:33;21.40;99.90
6654;DHT22;3363;50.942;7.034;2022-08-19T07:06:02;21.30;99.90
6654;DHT22;3363;50.942;7.034;2022-08-19T07:08:29;21.30;99.90
6654;DHT22;3363;50.942;7.034;2022-08-19T07:10:56;21.40;99.90
6654;DHT22;3363;50.942;7.034;2022-08-19T07:13:23;21.30;99.90
6654;DHT22;3363;50.942;7.034;2022-08-19T07:15:50;21.50;99.90
6654;DHT22;3363;50.942;7.034;2022-08-19T07:18:17;21.50;99.90
6654;DHT22;3363;50.942;7.034;2022-08-19T07:20:45;21.50;99.90
6654;DHT22;3363;50.942;7.034;2022-08-19T07:23:13;21.50;99.90
6654;DHT22;3363;50.942;7.034;2022-08-19T07:25:40;21.60;99.90
6654;DHT22;3363;50.942;7.034;2022-08-19T07:28:06;21.50;99.90
6654;DHT22;3363;50.942;7.034;2022-08-19T07:30:35;21.40;99.90
6654;DHT22;3363;50.942;7.034;2022-08-19T07:33:02;21.40;99.90
6654;DHT22;3363;50.942;7.034;2022-08-19T07:35:29;21.40;99.90
6654;DHT22;3363;50.942;7.034;2022-08-19T07:37:58;21.50;99.90
6654;DHT22;3363;50.942;7.034;2022-08-19T07:40:29;21.60;99.90
6654;DHT22;3363;50.942;7.034;2022-08-19T07:42:55;21.60;99.90
6654;DHT22;3363;50.942;7.034;2022-08-19T07:45:22;21.60;99.90
6654;DHT22;3363;50.942;7.034;2022-08-19T07:47:49;21.60;99.90
6654;DHT22;3363;50.942;7.034;2022-08-19T07:50:16;21.70;99.90
6654;DHT22;3363;50.942;7.034;2022-08-19T07:52:43;21.70;99.90
6654;DHT22;3363;50.942;7.034;2022-08-19T07:55:11;21.90;99.90
6654;DHT22;3363;50.942;7.034;2022-08-19T07:57:38;21.80;99.90
6654;DHT22;3363;50.942;7.034;2022-08-19T08:00:05;21.90;99.90
6654;DHT22;3363;50.942;7.034;2022-08-19T08:02:32;21.90;99.90
6654;DHT22;3363;50.942;7.034;2022-08-19T08:04:59;21.90;99.90
6654;DHT22;3363;50.942;7.034;2022-08-19T08:07:43;21.90;99.90
6654;DHT22;3363;50.942;7.034;2022-08-19T08:10:25;21.90;99.90
6654;DHT22;3363;50.942;7.034;2022-08-19T08:12:51;21.70;99.90
6654;DHT22;3363;50.942;7.034;2022-08-19T08:15:18;21.70;99.90
6654;DHT22;3363;50.942;7.034;2022-08-19T08:17:45;21.60;99.90
6654;DHT22;3363;50.942;7.034;2022-08-19T08:20:12;21.60;99.90
6654;DHT22;3363;50.942;7.034;2022-08-19T08:22:42;21.60;99.90
6654;DHT22;3363;50.942;7.034;2022-08-19T08:25:27;21.60;99.90
6654;DHT22;3363;50.942;7.034;2022-08-19T08:27:54;21.60;99.90
6654;DHT22;3363;50.942;7.034;2022-08-19T08:30:25;21.70;99.90
6654;DHT22;3363;50.942;7.034;2022-08-19T08:32:53;21.80;99.90
6654;DHT22;3363;50.942;7.034;2022-08-19T08:35:21;21.90;99.90
6654;DHT22;3363;50.942;7.034;2022-08-19T08:37:49;22.00;99.30
6654;DHT22;3363;50.942;7.034;2022-08-19T08:40:17;22.10;98.30
6654;DHT22;3363;50.942;7.034;2022-08-19T08:42:48;22.10;97.80
6654;DHT22;3363;50.942;7.034;2022-08-19T08:45:17;22.10;99.00
6654;DHT22;3363;50.942;7.034;2022-08-19T08:47:44;22.20;99.90
6654;DHT22;3363;50.942;7.034;2022-08-19T08:50:14;22.20;98.00
6654;DHT22;3363;50.942;7.034;2022-08-19T08:52:44;22.30;97.70
6654;DHT22;3363;50.942;7.034;2022-08-19T08:55:12;22.40;97.90
6654;DHT22;3363;50.942;7.034;2022-08-19T08:57:40;22.40;96.00
6654;DHT22;3363;50.942;7.034;2022-08-19T09:00:11;22.40;97.90
6654;DHT22;3363;50.942;7.034;2022-08-19T09:02:41;22.50;95.90
6654;DHT22;3363;50.942;7.034;2022-08-19T09:05:08;22.70;94.40
6654;DHT22;3363;50.942;7.034;2022-08-19T09:07:39;22.60;98.70
6654;DHT22;3363;50.942;7.034;2022-08-19T09:10:08;22.50;98.20
6654;DHT22;3363;50.942;7.034;2022-08-19T09:12:38;22.50;96.50
6654;DHT22;3363;50.942;7.034;2022-08-19T09:15:08;22.60;97.50
6654;DHT22;3363;50.942;7.034;2022-08-19T09:17:37;22.60;97.00
6654;DHT22;3363;50.942;7.034;2022-08-19T09:20:05;22.70;97.60
6654;DHT22;3363;50.942;7.034;2022-08-19T09:22:34;22.80;96.70
6654;DHT22;3363;50.942;7.034;2022-08-19T09:25:01;22.80;96.40
6654;DHT22;3363;50.942;7.034;2022-08-19T09:27:28;23.00;93.80
6654;DHT22;3363;50.942;7.034;2022-08-19T09:29:55;23.30;91.50
6654;DHT22;3363;50.942;7.034;2022-08-19T09:32:22;23.40;90.90
6654;DHT22;3363;50.942;7.034;2022-08-19T09:34:50;23.50;89.00
6654;DHT22;3363;50.942;7.034;2022-08-19T09:37:19;23.50;87.30
6654;DHT22;3363;50.942;7.034;2022-08-19T09:39:46;23.50;87.30
6654;DHT22;3363;50.942;7.034;2022-08-19T09:42:13;23.60;81.00
6654;DHT22;3363;50.942;7.034;2022-08-19T09:44:40;23.70;83.10
6654;DHT22;3363;50.942;7.034;2022-08-19T09:47:07;23.80;79.30
6654;DHT22;3363;50.942;7.034;2022-08-19T09:49:34;23.80;78.30
6654;DHT22;3363;50.942;7.034;2022-08-19T09:52:02;23.80;78.30
6654;DHT22;3363;50.942;7.034;2022-08-19T09:54:29;24.10;74.60
6654;DHT22;3363;50.942;7.034;2022-08-19T09:56:57;24.20;72.60
6654;DHT22;3363;50.942;7.034;2022-08-19T09:59:25;24.20;71.50
6654;DHT22;3363;50.942;7.034;2022-08-19T10:01:52;24.10;69.00
6654;DHT22;3363;50.942;7.034;2022-08-19T10:04:19;24.30;69.60
6654;DHT22;3363;50.942;7.034;2022-08-19T10:06:46;24.30;69.80
6654;DHT22;3363;50.942;7.034;2022-08-19T10:09:16;24.50;68.10
6654;DHT22;3363;50.942;7.034;2022-08-19T10:11:44;24.50;66.70
6654;DHT22;3363;50.942;7.034;2022-08-19T10:14:13;24.50;65.10
6654;DHT22;3363;50.942;7.034;2022-08-19T10:16:40;24.70;66.10
6654;DHT22;3363;50.942;7.034;2022-08-19T10:19:07;24.80;65.30
6654;DHT22;3363;50.942;7.034;2022-08-19T10:21:35;24.70;63.80
6654;DHT22;3363;50.942;7.034;2022-08-19T10:24:02;24.80;64.20
6654;DHT22;3363;50.942;7.034;2022-08-19T10:26:33;24.80;62.90
6654;DHT22;3363;50.942;7.034;2022-08-19T10:29:00;24.70;62.40
6654;DHT22;3363;50.942;7.034;2022-08-19T10:31:27;24.70;63.40
6654;DHT22;3363;50.942;7.034;2022-08-19T10:33:54;24.70;62.90
6654;DHT22;3363;50.942;7.034;2022-08-19T10:36:23;24.70;62.00
6654;DHT22;3363;50.942;7.034;2022-08-19T10:38:51;24.60;59.70
6654;DHT22;3363;50.942;7.034;2022-08-19T10:41:19;24.70;61.10
6654;DHT22;3363;50.942;7.034;2022-08-19T10:43:49;24.90;62.20
6654;DHT22;3363;50.942;7.034;2022-08-19T10:46:20;25.20;60.80
6654;DHT22;3363;50.942;7.034;2022-08-19T10:48:47;25.30;58.60
6654;DHT22;3363;50.942;7.034;2022-08-19T10:51:14;25.10;58.00
6654;DHT22;3363;50.942;7.034;2022-08-19T10:53:58;25.20;60.00
6654;DHT22;3363;50.942;7.034;2022-08-19T10:56:25;25.10;59.20
6654;DHT22;3363;50.942;7.034;2022-08-19T10:59:11;25.10;59.60
6654;DHT22;3363;50.942;7.034;2022-08-19T11:01:39;25.10;60.60
6654;DHT22;3363;50.942;7.034;2022-08-19T11:04:06;25.00;60.20
6654;DHT22;3363;50.942;7.034;2022-08-19T11:06:36;24.90;61.80
6654;DHT22;3363;50.942;7.034;2022-08-19T11:09:03;24.70;61.40
6654;DHT22;3363;50.942;7.034;2022-08-19T11:11:31;24.70;61.60
6654;DHT22;3363;50.942;7.034;2022-08-19T11:13:58;25.00;60.90
6654;DHT22;3363;50.942;7.034;2022-08-19T11:16:26;25.30;59.50
6654;DHT22;3363;50.942;7.034;2022-08-19T11:18:57;25.60;58.10
6654;DHT22;3363;50.942;7.034;2022-08-19T11:21:25;25.70;58.00
6654;DHT22;3363;50.942;7.034;2022-08-19T11:23:53;25.80;58.30
6654;DHT22;3363;50.942;7.034;2022-08-19T11:26:20;25.80;56.10
6654;DHT22;3363;50.942;7.034;2022-08-19T11:28:47;25.60;57.00
6654;DHT22;3363;50.942;7.034;2022-08-19T11:31:17;25.40;57.80
6654;DHT22;3363;50.942;7.034;2022-08-19T11:33:46;25.20;59.00
6654;DHT22;3363;50.942;7.034;2022-08-19T11:36:15;25.10;59.40
6654;DHT22;3363;50.942;7.034;2022-08-19T11:38:42;25.30;59.10
6654;DHT22;3363;50.942;7.034;2022-08-19T11:41:09;25.20;56.20
6654;DHT22;3363;50.942;7.034;2022-08-19T11:43:36;25.30;57.50
6654;DHT22;3363;50.942;7.034;2022-08-19T11:46:05;25.50;56.30
6654;DHT22;3363;50.942;7.034;2022-08-19T11:48:33;25.70;55.80
6654;DHT22;3363;50.942;7.034;2022-08-19T11:51:03;25.80;54.70
6654;DHT22;3363;50.942;7.034;2022-08-19T11:53:31;25.80;55.00
6654;DHT22;3363;50.942;7.034;2022-08-19T11:55:58;25.90;55.40
6654;DHT22;3363;50.942;7.034;2022-08-19T11:58:24;25.80;54.20
6654;DHT22;3363;50.942;7.034;2022-08-19T12:00:51;25.80;53.20
6654;DHT22;3363;50.942;7.034;2022-08-19T12:03:18;25.80;53.70
6654;DHT22;3363;50.942;7.034;2022-08-19T12:05:45;26.00;54.00
6654;DHT22;3363;50.942;7.034;2022-08-19T12:08:13;26.30;52.00
6654;DHT22;3363;50.942;7.034;2022-08-19T12:10:41;26.40;51.30
6654;DHT22;3363;50.942;7.034;2022-08-19T12:13:08;26.40;51.20
6654;DHT22;3363;50.942;7.034;2022-08-19T12:15:35;26.40;50.90
6654;DHT22;3363;50.942;7.034;2022-08-19T12:18:02;26.30;50.00
6654;DHT22;3363;50.942;7.034;2022-08-19T12:20:28;26.30;49.60
6654;DHT22;3363;50.942;7.034;2022-08-19T12:22:55;26.30;49.60
6654;DHT22;3363;50.942;7.034;2022-08-19T12:25:23;26.30;50.20
6654;DHT22;3363;50.942;7.034;2022-08-19T12:27:50;26.50;50.20
6654;DHT22;3363;50.942;7.034;2022-08-19T12:30:17;26.70;49.70
6654;DHT22;3363;50.942;7.034;2022-08-19T12:32:43;26.70;49.20
6654;DHT22;3363;50.942;7.034;2022-08-19T12:35:10;26.80;47.80
6654;DHT22;3363;50.942;7.034;2022-08-19T12:37:37;26.70;47.90
6654;DHT22;3363;50.942;7.034;2022-08-19T12:40:08;26.60;48.70
6654;DHT22;3363;50.942;7.034;2022-08-19T12:42:38;26.60;47.10
6654;DHT22;3363;50.942;7.034;2022-08-19T12:45:08;26.50;48.80
6654;DHT22;3363;50.942;7.034;2022-08-19T12:47:34;26.50;48.00
6654;DHT22;3363;50.942;7.034;2022-08-19T12:50:01;26.60;47.10
6654;DHT22;3363;50.942;7.034;2022-08-19T12:52:28;26.70;46.60
6654;DHT22;3363;50.942;7.034;2022-08-19T12:54:55;26.70;46.10
6654;DHT22;3363;50.942;7.034;2022-08-19T12:57:23;26.60;46.60
6654;DHT22;3363;50.942;7.034;2022-08-19T12:59:52;26.60;47.20
6654;DHT22;3363;50.942;7.034;2022-08-19T13:02:19;26.80;45.30
6654;DHT22;3363;50.942;7.034;2022-08-19T13:04:46;26.80;46.70
6654;DHT22;3363;50.942;7.034;2022-08-19T13:07:13;26.90;44.90
6654;DHT22;3363;50.942;7.034;2022-08-19T13:09:39;26.80;45.00
6654;DHT22;3363;50.942;7.034;2022-08-19T13:12:07;26.70;46.50
6654;DHT22;3363;50.942;7.034;2022-08-19T13:14:38;26.70;46.90
6654;DHT22;3363;50.942;7.034;2022-08-19T13:17:07;26.90;46.00
6654;DHT22;3363;50.942;7.034;2022-08-19T13:19:35;27.00;45.10
6654;DHT22;3363;50.942;7.034;2022-08-19T13:22:02;26.90;44.90
6654;DHT22;3363;50.942;7.034;2022-08-19T13:24:28;26.70;45.80
6654;DHT22;3363;50.942;7.034;2022-08-19T13:26:55;26.50;47.10
6654;DHT22;3363;50.942;7.034;2022-08-19T13:29:22;26.60;46.90
6654;DHT22;3363;50.942;7.034;2022-08-19T13:32:07;26.60;47.30
6654;DHT22;3363;50.942;7.034;2022-08-19T13:34:54;26.70;46.30
6654;DHT22;3363;50.942;7.034;2022-08-19T13:37:20;26.90;45.80
6654;DHT22;3363;50.942;7.034;2022-08-19T13:40:06;26.90;44.50
6654;DHT22;3363;50.942;7.034;2022-08-19T13:42:36;26.90;45.60
6654;DHT22;3363;50.942;7.034;2022-08-19T13:45:03;26.90;45.00
6654;DHT22;3363;50.942;7.034;2022-08-19T13:47:33;26.90;44.00
6654;DHT22;3363;50.942;7.034;2022-08-19T13:50:00;27.00;44.80
6654;DHT22;3363;50.942;7.034;2022-08-19T13:52:28;27.00;44.00
6654;DHT22;3363;50.942;7.034;2022-08-19T13:54:55;27.10;42.80
6654;DHT22;3363;50.942;7.034;2022-08-19T13:57:22;27.00;42.50
6654;DHT22;3363;50.942;7.034;2022-08-19T13:59:49;27.00;42.20
6654;DHT22;3363;50.942;7.034;2022-08-19T14:02:15;27.00;39.90
6654;DHT22;3363;50.942;7.034;2022-08-19T14:04:43;26.90;41.10
6654;DHT22;3363;50.942;7.034;2022-08-19T14:07:10;26.90;40.70
6654;DHT22;3363;50.942;7.034;2022-08-19T14:09:37;26.90;42.40
6654;DHT22;3363;50.942;7.034;2022-08-19T14:12:04;27.00;40.00
6654;DHT22;3363;50.942;7.034;2022-08-19T14:14:30;27.00;41.20
6654;DHT22;3363;50.942;7.034;2022-08-19T14:16:57;27.00;41.80
6654;DHT22;3363;50.942;7.034;2022-08-19T14:19:24;27.00;40.20
6654;DHT22;3363;50.942;7.034;2022-08-19T14:21:52;26.90;40.70
6654;DHT22;3363;50.942;7.034;2022-08-19T14:24:19;26.80;41.00
6654;DHT22;3363;50.942;7.034;2022-08-19T14:26:46;26.80;41.80
6654;DHT22;3363;50.942;7.034;2022-08-19T14:29:14;26.80;41.00
6654;DHT22;3363;50.942;7.034;2022-08-19T14:31:41;26.80;42.20
6654;DHT22;3363;50.942;7.034;2022-08-19T14:34:09;26.90;42.10
6654;DHT22;3363;50.942;7.034;2022-08-19T14:36:37;26.90;41.30
6654;DHT22;3363;50.942;7.034;2022-08-19T14:39:06;27.00;41.50
6654;DHT22;3363;50.942;7.034;2022-08-19T14:41:32;27.00;41.20
6654;DHT22;3363;50.942;7.034;2022-08-19T14:43:59;26.90;40.80
6654;DHT22;3363;50.942;7.034;2022-08-19T14:46:27;27.00;41.70
6654;DHT22;3363;50.942;7.034;2022-08-19T14:48:54;27.00;41.20
6654;DHT22;3363;50.942;7.034;2022-08-19T14:51:21;26.90;41.20
6654;DHT22;3363;50.942;7.034;2022-08-19T14:53:49;26.90;42.10
6654;DHT22;3363;50.942;7.034;2022-08-19T14:56:18;26.80;42.40
6654;DHT22;3363;50.942;7.034;2022-08-19T14:58:45;26.90;41.90
6654;DHT22;3363;50.942;7.034;2022-08-19T15:01:11;26.90;41.10
6654;DHT22;3363;50.942;7.034;2022-08-19T15:03:39;27.00;42.30
6654;DHT22;3363;50.942;7.034;2022-08-19T15:06:06;27.00;40.40
6654;DHT22;3363;50.942;7.034;2022-08-19T15:08:34;27.00;41.20
6654;DHT22;3363;50.942;7.034;2022-08-19T15:11:02;27.00;39.60
6654;DHT22;3363;50.942;7.034;2022-08-19T15:13:30;27.00;40.10
6654;DHT22;3363;50.942;7.034;2022-08-19T15:15:57;27.00;41.20
6654;DHT22;3363;50.942;7.034;2022-08-19T15:18:24;26.80;40.30
6654;DHT22;3363;50.942;7.034;2022-08-19T15:20:50;26.70;41.40
6654;DHT22;3363;50.942;7.034;2022-08-19T15:23:18;26.80;41.50
6654;DHT22;3363;50.942;7.034;2022-08-19T15:25:45;26.80;40.20
6654;DHT22;3363;50.942;7.034;2022-08-19T15:28:12;26.80;37.50
6654;DHT22;3363;50.942;7.034;2022-08-19T15:30:41;26.80;40.40
6654;DHT22;3363;50.942;7.034;2022-08-19T15:33:09;26.80;41.00
6654;DHT22;3363;50.942;7.034;2022-08-19T15:35:39;26.80;40.80
6654;DHT22;3363;50.942;7.034;2022-08-19T15:38:07;27.00;40.30
6654;DHT22;3363;50.942;7.034;2022-08-19T15:40:34;27.00;39.00
6654;DHT22;3363;50.942;7.034;2022-08-19T15:43:00;27.10;38.80
6654;DHT22;3363;50.942;7.034;2022-08-19T15:45:27;27.10;39.90
6654;DHT22;3363;50.942;7.034;2022-08-19T15:47:58;27.10;39.00
6654;DHT22;3363;50.942;7.034;2022-08-19T15:50:25;27.00;40.00
6654;DHT22;3363;50.942;7.034;2022-08-19T15:52:53;26.90;37.80
6654;DHT22;3363;50.942;7.034;2022-08-19T15:55:21;26.80;41.00
6654;DHT22;3363;50.942;7.034;2022-08-19T15:57:48;26.80;37.10
6654;DHT22;3363;50.942;7.034;2022-08-19T16:00:32;26.70;38.10
6654;DHT22;3363;50.942;7.034;2022-08-19T16:03:18;26.70;40.10
6654;DHT22;3363;50.942;7.034;2022-08-19T16:06:02;26.70;38.00
6654;DHT22;3363;50.942;7.034;2022-08-19T16:08:46;26.80;38.70